sensor_id;sensor_type;location;lat;lon;timestamp;P1;durP1;ratioP1;P2;durP2;ratioP2
16442;SDS011;8331;51.654;14.376;2022-10-16T00:01:18;12.93;;;11.70;;
16442;SDS011;8331;51.654;14.376;2022-10-16T00:03:45;11.43;;;10.50;;
16442;SDS011;8331;51.654;14.376;2022-10-16T00:06:12;12.63;;;11.37;;
16442;SDS011;8331;51.654;14.376;2022-10-16T00:08:39;11.73;;;10.67;;
16442;SDS011;8331;51.654;14.376;2022-10-16T00:11:25;12.63;;;11.40;;
16442;SDS011;8331;51.654;14.376;2022-10-16T00:13:54;13.67;;;11.03;;
16442;SDS011;8331;51.654;14.376;2022-10-16T00:16:21;13.73;;;11.60;;
16442;SDS011;8331;51.654;14.376;2022-10-16T00:18:47;14.20;;;11.53;;
16442;SDS011;8331;51.654;14.376;2022-10-16T00:21:15;12.20;;;10.50;;
16442;SDS011;8331;51.654;14.376;2022-10-16T00:23:42;13.07;;;11.23;;
16442;SDS011;8331;51.654;14.376;2022-10-16T00:26:09;12.33;;;11.07;;
16442;SDS011;8331;51.654;14.376;2022-10-16T00:28:37;11.90;;;10.73;;
16442;SDS011;8331;51.654;14.376;2022-10-16T00:31:04;11.47;;;10.40;;
16442;SDS011;8331;51.654;14.376;2022-10-16T00:33:31;10.80;;;9.90;;
16442;SDS011;8331;51.654;14.376;2022-10-16T00:35:58;12.53;;;10.43;;
16442;SDS011;8331;51.654;14.376;2022-10-16T00:38:25;11.97;;;10.87;;
16442;SDS011;8331;51.654;14.376;2022-10-16T00:40:52;12.00;;;10.80;;
16442;SDS011;8331;51.654;14.376;2022-10-16T00:46:00;11.67;;;9.87;;
16442;SDS011;8331;51.654;14.376;2022-10-16T00:48:28;12.63;;;10.57;;
16442;SDS011;8331;51.654;14.376;2022-10-16T00:50:55;11.83;;;10.03;;
16442;SDS011;8331;51.654;14.376;2022-10-16T00:53:22;11.50;;;10.23;;
16442;SDS011;8331;51.654;14.376;2022-10-16T00:55:49;13.60;;;11.68;;
16442;SDS011;8331;51.654;14.376;2022-10-16T00:58:16;11.97;;;10.90;;
16442;SDS011;8331;51.654;14.376;2022-10-16T01:00:42;11.40;;;10.23;;
16442;SDS011;8331;51.654;14.376;2022-10-16T01:03:26;11.37;;;10.37;;
16442;SDS011;8331;51.654;14.376;2022-10-16T01:05:57;11.60;;;10.50;;
16442;SDS011;8331;51.654;14.376;2022-10-16T01:08:28;11.43;;;9.90;;
16442;SDS011;8331;51.654;14.376;2022-10-16T01:11:05;13.37;;;9.40;;
16442;SDS011;8331;51.654;14.376;2022-10-16T01:13:38;10.43;;;9.50;;
16442;SDS011;8331;51.654;14.376;2022-10-16T01:16:18;11.10;;;9.37;;
16442;SDS011;8331;51.654;14.376;2022-10-16T01:18:47;10.97;;;9.43;;
16442;SDS011;8331;51.654;14.376;2022-10-16T01:21:26;14.17;;;9.73;;
16442;SDS011;8331;51.654;14.376;2022-10-16T01:24:08;10.17;;;9.40;;
16442;SDS011;8331;51.654;14.376;2022-10-16T01:26:58;12.17;;;9.40;;
16442;SDS011;8331;51.654;14.376;2022-10-16T01:29:26;11.10;;;10.00;;
16442;SDS011;8331;51.654;14.376;2022-10-16T01:31:57;12.17;;;10.93;;
16442;SDS011;8331;51.654;14.376;2022-10-16T01:34:30;14.57;;;10.63;;
16442;SDS011;8331;51.654;14.376;2022-10-16T01:37:06;12.50;;;11.23;;
16442;SDS011;8331;51.654;14.376;2022-10-16T01:39:35;11.23;;;10.13;;
16442;SDS011;8331;51.654;14.376;2022-10-16T01:42:13;15.53;;;10.60;;
16442;SDS011;8331;51.654;14.376;2022-10-16T01:44:41;11.73;;;10.70;;
16442;SDS011;8331;51.654;14.376;2022-10-16T01:47:09;11.97;;;10.70;;
16442;SDS011;8331;51.654;14.376;2022-10-16T01:49:36;12.70;;;10.53;;
16442;SDS011;8331;51.654;14.376;2022-10-16T01:52:06;11.13;;;10.13;;
16442;SDS011;8331;51.654;14.376;2022-10-16T01:54:34;11.90;;;10.87;;
16442;SDS011;8331;51.654;14.376;2022-10-16T01:57:02;11.53;;;10.37;;
16442;SDS011;8331;51.654;14.376;2022-10-16T01:59:30;12.13;;;11.13;;
16442;SDS011;8331;51.654;14.376;2022-10-16T02:02:01;12.83;;;11.50;;
16442;SDS011;8331;51.654;14.376;2022-10-16T02:04:34;12.53;;;11.27;;
16442;SDS011;8331;51.654;14.376;2022-10-16T02:07:02;12.23;;;11.00;;
16442;SDS011;8331;51.654;14.376;2022-10-16T02:09:29;11.87;;;10.80;;
16442;SDS011;8331;51.654;14.376;2022-10-16T02:11:56;12.90;;;11.60;;
16442;SDS011;8331;51.654;14.376;2022-10-16T02:14:25;13.57;;;12.10;;
16442;SDS011;8331;51.654;14.376;2022-10-16T02:16:52;11.60;;;10.40;;
16442;SDS011;8331;51.654;14.376;2022-10-16T02:19:19;13.90;;;12.63;;
16442;SDS011;8331;51.654;14.376;2022-10-16T02:21:51;13.83;;;12.67;;
16442;SDS011;8331;51.654;14.376;2022-10-16T02:24:28;13.93;;;12.63;;
16442;SDS011;8331;51.654;14.376;2022-10-16T02:27:03;13.43;;;12.03;;
16442;SDS011;8331;51.654;14.376;2022-10-16T02:29:32;13.23;;;12.13;;
16442;SDS011;8331;51.654;14.376;2022-10-16T02:32:02;13.70;;;12.27;;
16442;SDS011;8331;51.654;14.376;2022-10-16T02:34:30;14.23;;;10.90;;
16442;SDS011;8331;51.654;14.376;2022-10-16T02:36:58;11.47;;;10.47;;
16442;SDS011;8331;51.654;14.376;2022-10-16T02:39:26;11.97;;;10.97;;
16442;SDS011;8331;51.654;14.376;2022-10-16T02:41:53;11.97;;;10.97;;
16442;SDS011;8331;51.654;14.376;2022-10-16T02:44:19;12.50;;;10.57;;
16442;SDS011;8331;51.654;14.376;2022-10-16T02:46:46;12.50;;;10.57;;
16442;SDS011;8331;51.654;14.376;2022-10-16T02:49:12;15.50;;;10.60;;
16442;SDS011;8331;51.654;14.376;2022-10-16T02:51:39;11.80;;;10.77;;
16442;SDS011;8331;51.654;14.376;2022-10-16T02:54:05;12.03;;;10.73;;
16442;SDS011;8331;51.654;14.376;2022-10-16T02:56:32;13.33;;;11.37;;
16442;SDS011;8331;51.654;14.376;2022-10-16T02:58:58;11.60;;;10.57;;
16442;SDS011;8331;51.654;14.376;2022-10-16T03:01:25;12.00;;;11.00;;
16442;SDS011;8331;51.654;14.376;2022-10-16T03:03:52;12.03;;;10.87;;
16442;SDS011;8331;51.654;14.376;2022-10-16T03:06:18;11.80;;;10.70;;
16442;SDS011;8331;51.654;14.376;2022-10-16T03:08:45;13.73;;;11.10;;
16442;SDS011;8331;51.654;14.376;2022-10-16T03:11:11;11.07;;;9.97;;
16442;SDS011;8331;51.654;14.376;2022-10-16T03:13:37;11.97;;;10.87;;
16442;SDS011;8331;51.654;14.376;2022-10-16T03:16:04;11.70;;;10.60;;
16442;SDS011;8331;51.654;14.376;2022-10-16T03:18:30;11.60;;;10.50;;
16442;SDS011;8331;51.654;14.376;2022-10-16T03:20:57;10.97;;;10.17;;
16442;SDS011;8331;51.654;14.376;2022-10-16T03:23:23;11.63;;;10.53;;
16442;SDS011;8331;51.654;14.376;2022-10-16T03:25:50;13.48;;;11.93;;
16442;SDS011;8331;51.654;14.376;2022-10-16T03:28:17;11.27;;;10.17;;
16442;SDS011;8331;51.654;14.376;2022-10-16T03:30:43;10.60;;;9.60;;
16442;SDS011;8331;51.654;14.376;2022-10-16T03:33:10;9.67;;;8.87;;
16442;SDS011;8331;51.654;14.376;2022-10-16T03:35:36;11.07;;;10.17;;
16442;SDS011;8331;51.654;14.376;2022-10-16T03:38:03;12.00;;;10.40;;
16442;SDS011;8331;51.654;14.376;2022-10-16T03:40:30;11.47;;;10.17;;
16442;SDS011;8331;51.654;14.376;2022-10-16T03:42:58;12.00;;;11.00;;
16442;SDS011;8331;51.654;14.376;2022-10-16T03:45:25;15.07;;;10.50;;
16442;SDS011;8331;51.654;14.376;2022-10-16T03:47:52;11.00;;;9.90;;
16442;SDS011;8331;51.654;14.376;2022-10-16T03:50:18;11.60;;;10.50;;
16442;SDS011;8331;51.654;14.376;2022-10-16T03:52:45;11.00;;;10.20;;
16442;SDS011;8331;51.654;14.376;2022-10-16T03:55:11;14.60;;;10.90;;
16442;SDS011;8331;51.654;14.376;2022-10-16T03:57:38;12.97;;;10.20;;
16442;SDS011;8331;51.654;14.376;2022-10-16T04:00:04;11.40;;;10.27;;
16442;SDS011;8331;51.654;14.376;2022-10-16T04:02:37;10.97;;;9.70;;
16442;SDS011;8331;51.654;14.376;2022-10-16T04:05:03;10.57;;;9.57;;
16442;SDS011;8331;51.654;14.376;2022-10-16T04:07:30;10.63;;;9.83;;
16442;SDS011;8331;51.654;14.376;2022-10-16T04:09:56;12.43;;;9.63;;
16442;SDS011;8331;51.654;14.376;2022-10-16T04:12:25;11.43;;;10.30;;
16442;SDS011;8331;51.654;14.376;2022-10-16T04:14:52;10.70;;;9.80;;
16442;SDS011;8331;51.654;14.376;2022-10-16T04:17:18;10.93;;;10.03;;
16442;SDS011;8331;51.654;14.376;2022-10-16T04:19:45;10.43;;;9.47;;
16442;SDS011;8331;51.654;14.376;2022-10-16T04:22:12;14.17;;;11.07;;
16442;SDS011;8331;51.654;14.376;2022-10-16T04:24:39;12.07;;;10.80;;
16442;SDS011;8331;51.654;14.376;2022-10-16T04:27:06;12.20;;;11.10;;
16442;SDS011;8331;51.654;14.376;2022-10-16T04:29:32;13.90;;;10.97;;
16442;SDS011;8331;51.654;14.376;2022-10-16T04:31:59;12.17;;;11.00;;
16442;SDS011;8331;51.654;14.376;2022-10-16T04:34:25;17.10;;;11.30;;
16442;SDS011;8331;51.654;14.376;2022-10-16T04:36:52;11.83;;;10.83;;
16442;SDS011;8331;51.654;14.376;2022-10-16T04:39:18;12.13;;;10.97;;
16442;SDS011;8331;51.654;14.376;2022-10-16T04:41:45;11.50;;;10.40;;
16442;SDS011;8331;51.654;14.376;2022-10-16T04:44:11;10.90;;;9.80;;
16442;SDS011;8331;51.654;14.376;2022-10-16T04:46:38;11.37;;;10.17;;
16442;SDS011;8331;51.654;14.376;2022-10-16T04:49:04;12.43;;;11.33;;
16442;SDS011;8331;51.654;14.376;2022-10-16T04:51:31;12.27;;;10.80;;
16442;SDS011;8331;51.654;14.376;2022-10-16T04:53:57;13.37;;;11.47;;
16442;SDS011;8331;51.654;14.376;2022-10-16T04:56:24;13.43;;;11.20;;
16442;SDS011;8331;51.654;14.376;2022-10-16T04:58:50;11.20;;;10.10;;
16442;SDS011;8331;51.654;14.376;2022-10-16T05:01:17;11.47;;;10.40;;
16442;SDS011;8331;51.654;14.376;2022-10-16T05:03:43;12.00;;;10.80;;
16442;SDS011;8331;51.654;14.376;2022-10-16T05:06:10;12.17;;;11.07;;
16442;SDS011;8331;51.654;14.376;2022-10-16T05:08:36;11.87;;;10.77;;
16442;SDS011;8331;51.654;14.376;2022-10-16T05:11:03;11.70;;;10.70;;
16442;SDS011;8331;51.654;14.376;2022-10-16T05:13:29;12.50;;;10.20;;
16442;SDS011;8331;51.654;14.376;2022-10-16T05:15:56;14.70;;;10.27;;
16442;SDS011;8331;51.654;14.376;2022-10-16T05:18:23;11.23;;;10.23;;
16442;SDS011;8331;51.654;14.376;2022-10-16T05:20:49;12.97;;;11.73;;
16442;SDS011;8331;51.654;14.376;2022-10-16T05:23:16;11.73;;;10.73;;
16442;SDS011;8331;51.654;14.376;2022-10-16T05:25:42;14.00;;;11.37;;
16442;SDS011;8331;51.654;14.376;2022-10-16T05:28:09;13.00;;;11.67;;
16442;SDS011;8331;51.654;14.376;2022-10-16T05:30:36;12.67;;;11.47;;
16442;SDS011;8331;51.654;14.376;2022-10-16T05:33:03;12.80;;;10.73;;
16442;SDS011;8331;51.654;14.376;2022-10-16T05:35:29;12.70;;;11.37;;
16442;SDS011;8331;51.654;14.376;2022-10-16T05:37:56;12.57;;;11.23;;
16442;SDS011;8331;51.654;14.376;2022-10-16T05:40:23;11.83;;;10.73;;
16442;SDS011;8331;51.654;14.376;2022-10-16T05:42:49;11.87;;;10.90;;
16442;SDS011;8331;51.654;14.376;2022-10-16T05:45:16;12.50;;;10.57;;
16442;SDS011;8331;51.654;14.376;2022-10-16T05:47:42;11.73;;;10.83;;
16442;SDS011;8331;51.654;14.376;2022-10-16T05:50:09;12.37;;;11.17;;
16442;SDS011;8331;51.654;14.376;2022-10-16T05:52:35;12.27;;;11.10;;
16442;SDS011;8331;51.654;14.376;2022-10-16T05:55:02;13.40;;;12.00;;
16442;SDS011;8331;51.654;14.376;2022-10-16T05:57:28;11.07;;;10.17;;
16442;SDS011;8331;51.654;14.376;2022-10-16T05:59:56;12.93;;;11.67;;
16442;SDS011;8331;51.654;14.376;2022-10-16T06:02:22;11.93;;;10.87;;
16442;SDS011;8331;51.654;14.376;2022-10-16T06:04:49;12.67;;;11.17;;
16442;SDS011;8331;51.654;14.376;2022-10-16T06:07:17;14.63;;;11.43;;
16442;SDS011;8331;51.654;14.376;2022-10-16T06:09:43;14.60;;;11.73;;
16442;SDS011;8331;51.654;14.376;2022-10-16T06:12:10;11.93;;;11.07;;
16442;SDS011;8331;51.654;14.376;2022-10-16T06:14:36;12.40;;;11.20;;
16442;SDS011;8331;51.654;14.376;2022-10-16T06:17:03;13.40;;;12.03;;
16442;SDS011;8331;51.654;14.376;2022-10-16T06:19:29;13.97;;;11.00;;
16442;SDS011;8331;51.654;14.376;2022-10-16T06:21:57;12.33;;;11.13;;
16442;SDS011;8331;51.654;14.376;2022-10-16T06:24:24;14.00;;;12.07;;
16442;SDS011;8331;51.654;14.376;2022-10-16T06:26:51;13.00;;;11.80;;
16442;SDS011;8331;51.654;14.376;2022-10-16T06:29:18;12.50;;;11.47;;
16442;SDS011;8331;51.654;14.376;2022-10-16T06:31:44;12.93;;;11.73;;
16442;SDS011;8331;51.654;14.376;2022-10-16T06:34:10;14.87;;;11.43;;
16442;SDS011;8331;51.654;14.376;2022-10-16T06:36:38;15.67;;;11.63;;
16442;SDS011;8331;51.654;14.376;2022-10-16T06:39:04;12.03;;;10.83;;
16442;SDS011;8331;51.654;14.376;2022-10-16T06:41:31;11.80;;;10.83;;
16442;SDS011;8331;51.654;14.376;2022-10-16T06:44:07;12.23;;;11.20;;
16442;SDS011;8331;51.654;14.376;2022-10-16T06:46:34;12.30;;;11.20;;
16442;SDS011;8331;51.654;14.376;2022-10-16T06:49:00;12.83;;;11.73;;
16442;SDS011;8331;51.654;14.376;2022-10-16T06:51:27;11.87;;;10.97;;
16442;SDS011;8331;51.654;14.376;2022-10-16T06:53:54;12.90;;;11.60;;
16442;SDS011;8331;51.654;14.376;2022-10-16T06:56:30;12.27;;;11.27;;
16442;SDS011;8331;51.654;14.376;2022-10-16T06:58:57;13.80;;;12.50;;
16442;SDS011;8331;51.654;14.376;2022-10-16T07:01:24;13.90;;;12.73;;
16442;SDS011;8331;51.654;14.376;2022-10-16T07:03:51;13.77;;;12.50;;
16442;SDS011;8331;51.654;14.376;2022-10-16T07:06:18;13.50;;;12.37;;
16442;SDS011;8331;51.654;14.376;2022-10-16T07:08:45;13.37;;;12.23;;
16442;SDS011;8331;51.654;14.376;2022-10-16T07:11:13;13.93;;;12.13;;
16442;SDS011;8331;51.654;14.376;2022-10-16T07:13:41;16.63;;;13.13;;
16442;SDS011;8331;51.654;14.376;2022-10-16T07:16:09;13.50;;;12.33;;
16442;SDS011;8331;51.654;14.376;2022-10-16T07:18:36;13.53;;;12.40;;
16442;SDS011;8331;51.654;14.376;2022-10-16T07:21:05;13.53;;;12.23;;
16442;SDS011;8331;51.654;14.376;2022-10-16T07:23:32;13.30;;;12.03;;
16442;SDS011;8331;51.654;14.376;2022-10-16T07:25:58;12.27;;;11.17;;
16442;SDS011;8331;51.654;14.376;2022-10-16T07:28:25;13.73;;;12.63;;
16442;SDS011;8331;51.654;14.376;2022-10-16T07:30:52;13.27;;;11.97;;
16442;SDS011;8331;51.654;14.376;2022-10-16T07:33:18;13.83;;;12.73;;
16442;SDS011;8331;51.654;14.376;2022-10-16T07:35:52;13.60;;;12.20;;
16442;SDS011;8331;51.654;14.376;2022-10-16T07:38:19;13.17;;;11.70;;
16442;SDS011;8331;51.654;14.376;2022-10-16T07:40:46;13.27;;;11.90;;
16442;SDS011;8331;51.654;14.376;2022-10-16T07:43:13;12.47;;;11.47;;
16442;SDS011;8331;51.654;14.376;2022-10-16T07:45:49;12.40;;;11.30;;
16442;SDS011;8331;51.654;14.376;2022-10-16T07:48:21;11.47;;;10.43;;
16442;SDS011;8331;51.654;14.376;2022-10-16T07:50:48;10.80;;;9.83;;
16442;SDS011;8331;51.654;14.376;2022-10-16T07:53:14;10.97;;;10.07;;
16442;SDS011;8331;51.654;14.376;2022-10-16T07:55:41;9.20;;;8.50;;
16442;SDS011;8331;51.654;14.376;2022-10-16T07:58:08;9.37;;;8.67;;
16442;SDS011;8331;51.654;14.376;2022-10-16T08:00:35;9.03;;;8.37;;
16442;SDS011;8331;51.654;14.376;2022-10-16T08:03:02;9.07;;;8.27;;
16442;SDS011;8331;51.654;14.376;2022-10-16T08:05:29;8.93;;;8.17;;
16442;SDS011;8331;51.654;14.376;2022-10-16T08:07:56;8.27;;;7.57;;
16442;SDS011;8331;51.654;14.376;2022-10-16T08:10:23;8.53;;;7.63;;
16442;SDS011;8331;51.654;14.376;2022-10-16T08:12:51;8.40;;;7.60;;
16442;SDS011;8331;51.654;14.376;2022-10-16T08:15:18;7.50;;;7.00;;
16442;SDS011;8331;51.654;14.376;2022-10-16T08:17:44;8.30;;;6.50;;
16442;SDS011;8331;51.654;14.376;2022-10-16T08:20:11;6.63;;;6.23;;
16442;SDS011;8331;51.654;14.376;2022-10-16T08:22:37;6.93;;;6.40;;
16442;SDS011;8331;51.654;14.376;2022-10-16T08:25:04;6.67;;;6.27;;
16442;SDS011;8331;51.654;14.376;2022-10-16T08:27:33;6.80;;;6.20;;
16442;SDS011;8331;51.654;14.376;2022-10-16T08:30:00;6.33;;;5.93;;
16442;SDS011;8331;51.654;14.376;2022-10-16T08:32:26;5.60;;;5.30;;
16442;SDS011;8331;51.654;14.376;2022-10-16T08:34:53;6.07;;;5.57;;
16442;SDS011;8331;51.654;14.376;2022-10-16T08:37:19;5.87;;;5.47;;
16442;SDS011;8331;51.654;14.376;2022-10-16T08:39:46;5.60;;;5.30;;
16442;SDS011;8331;51.654;14.376;2022-10-16T08:44:47;5.73;;;5.40;;
16442;SDS011;8331;51.654;14.376;2022-10-16T08:47:25;5.33;;;4.90;;
16442;SDS011;8331;51.654;14.376;2022-10-16T08:49:55;5.50;;;5.10;;
16442;SDS011;8331;51.654;14.376;2022-10-16T08:52:23;5.23;;;4.93;;
16442;SDS011;8331;51.654;14.376;2022-10-16T08:54:53;5.03;;;4.73;;
16442;SDS011;8331;51.654;14.376;2022-10-16T08:57:21;4.80;;;4.50;;
16442;SDS011;8331;51.654;14.376;2022-10-16T08:59:49;4.93;;;4.63;;
16442;SDS011;8331;51.654;14.376;2022-10-16T09:07:28;4.63;;;4.30;;
16442;SDS011;8331;51.654;14.376;2022-10-16T09:20:49;3.43;;;3.23;;
16442;SDS011;8331;51.654;14.376;2022-10-16T09:23:18;3.90;;;3.60;;
16442;SDS011;8331;51.654;14.376;2022-10-16T09:25:46;3.47;;;3.17;;
16442;SDS011;8331;51.654;14.376;2022-10-16T09:28:14;3.50;;;3.30;;
16442;SDS011;8331;51.654;14.376;2022-10-16T09:30:41;3.40;;;3.20;;
16442;SDS011;8331;51.654;14.376;2022-10-16T09:33:07;3.10;;;3.00;;
16442;SDS011;8331;51.654;14.376;2022-10-16T09:35:39;3.30;;;3.00;;
16442;SDS011;8331;51.654;14.376;2022-10-16T09:38:06;2.97;;;2.77;;
16442;SDS011;8331;51.654;14.376;2022-10-16T09:40:34;3.13;;;2.93;;
16442;SDS011;8331;51.654;14.376;2022-10-16T09:43:24;2.80;;;2.70;;
16442;SDS011;8331;51.654;14.376;2022-10-16T09:46:02;3.07;;;2.47;;
16442;SDS011;8331;51.654;14.376;2022-10-16T09:48:44;2.83;;;2.10;;
16442;SDS011;8331;51.654;14.376;2022-10-16T09:51:20;2.63;;;1.90;;
16442;SDS011;8331;51.654;14.376;2022-10-16T09:53:48;1.17;;;1.17;;
16442;SDS011;8331;51.654;14.376;2022-10-16T09:56:22;1.10;;;1.10;;
16442;SDS011;8331;51.654;14.376;2022-10-16T09:58:49;1.07;;;1.07;;
16442;SDS011;8331;51.654;14.376;2022-10-16T10:01:16;2.57;;;1.10;;
16442;SDS011;8331;51.654;14.376;2022-10-16T10:03:43;1.10;;;1.10;;
16442;SDS011;8331;51.654;14.376;2022-10-16T10:11:38;1.00;;;1.00;;
16442;SDS011;8331;51.654;14.376;2022-10-16T10:14:05;1.37;;;1.10;;
16442;SDS011;8331;51.654;14.376;2022-10-16T10:16:32;1.60;;;1.13;;
16442;SDS011;8331;51.654;14.376;2022-10-16T10:18:59;1.43;;;1.03;;
16442;SDS011;8331;51.654;14.376;2022-10-16T10:21:25;1.20;;;1.10;;
16442;SDS011;8331;51.654;14.376;2022-10-16T10:23:55;1.00;;;1.00;;
16442;SDS011;8331;51.654;14.376;2022-10-16T10:26:24;1.03;;;0.87;;
16442;SDS011;8331;51.654;14.376;2022-10-16T10:40:04;0.90;;;0.90;;
16442;SDS011;8331;51.654;14.376;2022-10-16T10:42:40;1.03;;;1.03;;
16442;SDS011;8331;51.654;14.376;2022-10-16T10:53:16;0.90;;;0.90;;
16442;SDS011;8331;51.654;14.376;2022-10-16T10:58:46;0.83;;;0.83;;
16442;SDS011;8331;51.654;14.376;2022-10-16T11:01:16;1.50;;;1.43;;
16442;SDS011;8331;51.654;14.376;2022-10-16T11:06:33;5.23;;;3.80;;
16442;SDS011;8331;51.654;14.376;2022-10-16T11:16:30;1.90;;;0.80;;
16442;SDS011;8331;51.654;14.376;2022-10-16T11:21:44;1.10;;;1.00;;
16442;SDS011;8331;51.654;14.376;2022-10-16T11:24:19;0.70;;;0.70;;
16442;SDS011;8331;51.654;14.376;2022-10-16T11:26:48;0.83;;;0.70;;
16442;SDS011;8331;51.654;14.376;2022-10-16T11:29:17;1.90;;;0.67;;
16442;SDS011;8331;51.654;14.376;2022-10-16T11:31:47;1.90;;;0.60;;
16442;SDS011;8331;51.654;14.376;2022-10-16T11:34:26;0.70;;;0.70;;
16442;SDS011;8331;51.654;14.376;2022-10-16T11:39:54;0.77;;;0.77;;
16442;SDS011;8331;51.654;14.376;2022-10-16T11:42:44;2.00;;;0.90;;
16442;SDS011;8331;51.654;14.376;2022-10-16T11:45:17;2.27;;;1.20;;
16442;SDS011;8331;51.654;14.376;2022-10-16T11:47:48;2.53;;;1.10;;
16442;SDS011;8331;51.654;14.376;2022-10-16T11:53:23;1.30;;;0.70;;
16442;SDS011;8331;51.654;14.376;2022-10-16T11:55:53;0.77;;;0.77;;
16442;SDS011;8331;51.654;14.376;2022-10-16T12:00:55;1.23;;;0.80;;
16442;SDS011;8331;51.654;14.376;2022-10-16T12:08:15;0.70;;;0.70;;
16442;SDS011;8331;51.654;14.376;2022-10-16T12:10:43;1.33;;;0.80;;
16442;SDS011;8331;51.654;14.376;2022-10-16T12:18:43;1.23;;;1.00;;
16442;SDS011;8331;51.654;14.376;2022-10-16T12:21:10;1.20;;;0.70;;
16442;SDS011;8331;51.654;14.376;2022-10-16T12:23:52;0.60;;;0.60;;
16442;SDS011;8331;51.654;14.376;2022-10-16T12:26:30;0.73;;;0.63;;
16442;SDS011;8331;51.654;14.376;2022-10-16T12:29:09;0.87;;;0.80;;
16442;SDS011;8331;51.654;14.376;2022-10-16T12:31:39;1.17;;;1.10;;
16442;SDS011;8331;51.654;14.376;2022-10-16T12:34:37;1.03;;;0.90;;
16442;SDS011;8331;51.654;14.376;2022-10-16T12:37:10;0.90;;;0.90;;
16442;SDS011;8331;51.654;14.376;2022-10-16T12:39:37;0.77;;;0.77;;
16442;SDS011;8331;51.654;14.376;2022-10-16T12:42:06;0.80;;;0.80;;
16442;SDS011;8331;51.654;14.376;2022-10-16T12:44:44;0.80;;;0.80;;
16442;SDS011;8331;51.654;14.376;2022-10-16T12:49:50;1.90;;;0.80;;
16442;SDS011;8331;51.654;14.376;2022-10-16T12:52:25;1.43;;;0.77;;
16442;SDS011;8331;51.654;14.376;2022-10-16T12:54:52;0.80;;;0.80;;
16442;SDS011;8331;51.654;14.376;2022-10-16T13:05:14;0.70;;;0.70;;
16442;SDS011;8331;51.654;14.376;2022-10-16T13:16:05;0.80;;;0.80;;
16442;SDS011;8331;51.654;14.376;2022-10-16T13:29:16;1.80;;;0.80;;
16442;SDS011;8331;51.654;14.376;2022-10-16T13:31:42;1.70;;;0.97;;
16442;SDS011;8331;51.654;14.376;2022-10-16T13:34:14;1.97;;;1.00;;
16442;SDS011;8331;51.654;14.376;2022-10-16T13:36:46;0.73;;;0.70;;
16442;SDS011;8331;51.654;14.376;2022-10-16T13:39:23;0.90;;;0.90;;
16442;SDS011;8331;51.654;14.376;2022-10-16T13:42:06;3.47;;;0.90;;
16442;SDS011;8331;51.654;14.376;2022-10-16T13:44:36;0.90;;;0.90;;
16442;SDS011;8331;51.654;14.376;2022-10-16T13:47:05;1.47;;;0.97;;
16442;SDS011;8331;51.654;14.376;2022-10-16T13:49:32;1.53;;;1.10;;
16442;SDS011;8331;51.654;14.376;2022-10-16T13:51:59;1.73;;;1.30;;
16442;SDS011;8331;51.654;14.376;2022-10-16T13:54:26;1.20;;;1.10;;
16442;SDS011;8331;51.654;14.376;2022-10-16T13:56:54;2.13;;;0.93;;
16442;SDS011;8331;51.654;14.376;2022-10-16T13:59:34;1.77;;;1.20;;
16442;SDS011;8331;51.654;14.376;2022-10-16T14:02:05;2.10;;;1.70;;
16442;SDS011;8331;51.654;14.376;2022-10-16T14:04:34;3.13;;;2.23;;
16442;SDS011;8331;51.654;14.376;2022-10-16T14:07:04;2.77;;;2.60;;
16442;SDS011;8331;51.654;14.376;2022-10-16T14:09:31;4.23;;;3.93;;
16442;SDS011;8331;51.654;14.376;2022-10-16T14:11:59;5.20;;;4.47;;
16442;SDS011;8331;51.654;14.376;2022-10-16T14:14:48;3.67;;;3.47;;
16442;SDS011;8331;51.654;14.376;2022-10-16T14:17:26;1.63;;;1.50;;
16442;SDS011;8331;51.654;14.376;2022-10-16T14:19:54;2.07;;;1.80;;
16442;SDS011;8331;51.654;14.376;2022-10-16T14:22:29;3.17;;;1.23;;
16442;SDS011;8331;51.654;14.376;2022-10-16T14:24:56;1.43;;;1.30;;
16442;SDS011;8331;51.654;14.376;2022-10-16T14:27:24;2.47;;;1.37;;
16442;SDS011;8331;51.654;14.376;2022-10-16T14:30:03;1.70;;;1.50;;
16442;SDS011;8331;51.654;14.376;2022-10-16T14:32:32;1.53;;;1.43;;
16442;SDS011;8331;51.654;14.376;2022-10-16T14:34:58;1.50;;;1.40;;
16442;SDS011;8331;51.654;14.376;2022-10-16T14:37:25;4.03;;;1.80;;
16442;SDS011;8331;51.654;14.376;2022-10-16T14:39:54;1.73;;;1.63;;
16442;SDS011;8331;51.654;14.376;2022-10-16T14:42:21;1.53;;;1.43;;
16442;SDS011;8331;51.654;14.376;2022-10-16T14:44:50;1.67;;;1.57;;
16442;SDS011;8331;51.654;14.376;2022-10-16T14:47:23;3.30;;;1.57;;
16442;SDS011;8331;51.654;14.376;2022-10-16T14:49:53;8.83;;;1.80;;
16442;SDS011;8331;51.654;14.376;2022-10-16T14:52:25;2.07;;;1.33;;
16442;SDS011;8331;51.654;14.376;2022-10-16T14:54:51;2.70;;;1.23;;
16442;SDS011;8331;51.654;14.376;2022-10-16T14:57:22;3.63;;;1.40;;
16442;SDS011;8331;51.654;14.376;2022-10-16T14:59:50;1.20;;;1.20;;
16442;SDS011;8331;51.654;14.376;2022-10-16T15:02:35;3.73;;;1.70;;
16442;SDS011;8331;51.654;14.376;2022-10-16T15:05:16;3.37;;;1.60;;
16442;SDS011;8331;51.654;14.376;2022-10-16T15:07:44;2.30;;;1.30;;
16442;SDS011;8331;51.654;14.376;2022-10-16T15:10:12;3.67;;;1.67;;
16442;SDS011;8331;51.654;14.376;2022-10-16T15:12:39;2.37;;;1.40;;
16442;SDS011;8331;51.654;14.376;2022-10-16T15:15:15;1.70;;;1.50;;
16442;SDS011;8331;51.654;14.376;2022-10-16T15:17:47;3.83;;;1.47;;
16442;SDS011;8331;51.654;14.376;2022-10-16T15:20:14;3.27;;;1.67;;
16442;SDS011;8331;51.654;14.376;2022-10-16T15:22:40;2.40;;;1.67;;
16442;SDS011;8331;51.654;14.376;2022-10-16T15:25:26;1.93;;;1.27;;
16442;SDS011;8331;51.654;14.376;2022-10-16T15:27:53;2.30;;;1.27;;
16442;SDS011;8331;51.654;14.376;2022-10-16T15:30:20;2.33;;;1.37;;
16442;SDS011;8331;51.654;14.376;2022-10-16T15:32:46;2.67;;;1.60;;
16442;SDS011;8331;51.654;14.376;2022-10-16T15:35:13;1.70;;;1.50;;
16442;SDS011;8331;51.654;14.376;2022-10-16T15:37:39;3.13;;;1.63;;
16442;SDS011;8331;51.654;14.376;2022-10-16T15:40:06;1.27;;;1.27;;
16442;SDS011;8331;51.654;14.376;2022-10-16T15:42:32;1.30;;;1.23;;
16442;SDS011;8331;51.654;14.376;2022-10-16T15:44:59;1.20;;;1.20;;
16442;SDS011;8331;51.654;14.376;2022-10-16T15:47:25;4.37;;;1.40;;
16442;SDS011;8331;51.654;14.376;2022-10-16T15:49:52;2.53;;;1.13;;
16442;SDS011;8331;51.654;14.376;2022-10-16T15:52:18;1.00;;;1.00;;
16442;SDS011;8331;51.654;14.376;2022-10-16T15:54:44;1.30;;;1.17;;
16442;SDS011;8331;51.654;14.376;2022-10-16T15:57:18;2.20;;;1.30;;
16442;SDS011;8331;51.654;14.376;2022-10-16T15:59:45;1.00;;;1.00;;
16442;SDS011;8331;51.654;14.376;2022-10-16T16:02:11;4.03;;;1.43;;
16442;SDS011;8331;51.654;14.376;2022-10-16T16:04:38;1.30;;;1.20;;
16442;SDS011;8331;51.654;14.376;2022-10-16T16:07:09;1.10;;;1.10;;
16442;SDS011;8331;51.654;14.376;2022-10-16T16:09:36;3.17;;;1.20;;
16442;SDS011;8331;51.654;14.376;2022-10-16T16:12:03;1.53;;;1.40;;
16442;SDS011;8331;51.654;14.376;2022-10-16T16:14:29;2.70;;;1.27;;
16442;SDS011;8331;51.654;14.376;2022-10-16T16:16:56;1.93;;;1.70;;
16442;SDS011;8331;51.654;14.376;2022-10-16T16:19:23;2.07;;;1.50;;
16442;SDS011;8331;51.654;14.376;2022-10-16T16:21:50;4.50;;;1.60;;
16442;SDS011;8331;51.654;14.376;2022-10-16T16:24:16;3.90;;;1.70;;
16442;SDS011;8331;51.654;14.376;2022-10-16T16:26:43;5.13;;;1.60;;
16442;SDS011;8331;51.654;14.376;2022-10-16T16:29:13;3.07;;;1.47;;
16442;SDS011;8331;51.654;14.376;2022-10-16T16:31:40;3.17;;;1.67;;
16442;SDS011;8331;51.654;14.376;2022-10-16T16:34:06;2.73;;;1.53;;